sensor_id;sensor_type;location;lat;lon;timestamp;P1;durP1;ratioP1;P2;durP2;ratioP2
43363;SDS011;40636;52.424;-1.948;2022-09-21T00:01:14;3.97;;;2.38;;
43363;SDS011;40636;52.424;-1.948;2022-09-21T00:03:44;4.43;;;2.50;;
43363;SDS011;40636;52.424;-1.948;2022-09-21T00:06:16;4.30;;;2.38;;
43363;SDS011;40636;52.424;-1.948;2022-09-21T00:08:45;3.58;;;2.45;;
43363;SDS011;40636;52.424;-1.948;2022-09-21T00:11:15;3.78;;;3.13;;
43363;SDS011;40636;52.424;-1.948;2022-09-21T00:13:56;5.07;;;2.83;;
43363;SDS011;40636;52.424;-1.948;2022-09-21T00:16:26;4.38;;;2.75;;
43363;SDS011;40636;52.424;-1.948;2022-09-21T00:18:54;5.32;;;2.92;;
43363;SDS011;40636;52.424;-1.948;2022-09-21T00:21:20;4.55;;;2.67;;
43363;SDS011;40636;52.424;-1.948;2022-09-21T00:23:49;4.20;;;2.28;;
43363;SDS011;40636;52.424;-1.948;2022-09-21T00:26:17;3.00;;;2.30;;
43363;SDS011;40636;52.424;-1.948;2022-09-21T00:28:46;4.88;;;3.03;;
43363;SDS011;40636;52.424;-1.948;2022-09-21T00:31:14;4.38;;;2.70;;
43363;SDS011;40636;52.424;-1.948;2022-09-21T00:33:43;8.52;;;3.13;;
43363;SDS011;40636;52.424;-1.948;2022-09-21T00:36:11;4.28;;;2.70;;
43363;SDS011;40636;52.424;-1.948;2022-09-21T00:38:39;6.03;;;2.92;;
43363;SDS011;40636;52.424;-1.948;2022-09-21T00:41:07;4.93;;;2.97;;
43363;SDS011;40636;52.424;-1.948;2022-09-21T00:43:36;5.45;;;2.80;;
43363;SDS011;40636;52.424;-1.948;2022-09-21T00:46:10;5.57;;;3.03;;
43363;SDS011;40636;52.424;-1.948;2022-09-21T00:48:46;4.22;;;3.08;;
43363;SDS011;40636;52.424;-1.948;2022-09-21T00:51:14;30.63;;;6.15;;
43363;SDS011;40636;52.424;-1.948;2022-09-21T00:53:41;6.85;;;3.10;;
43363;SDS011;40636;52.424;-1.948;2022-09-21T00:56:08;3.28;;;2.40;;
43363;SDS011;40636;52.424;-1.948;2022-09-21T00:58:44;5.00;;;3.30;;
43363;SDS011;40636;52.424;-1.948;2022-09-21T01:01:14;4.57;;;2.33;;
43363;SDS011;40636;52.424;-1.948;2022-09-21T01:03:46;4.63;;;3.10;;
43363;SDS011;40636;52.424;-1.948;2022-09-21T01:06:16;4.40;;;2.72;;
43363;SDS011;40636;52.424;-1.948;2022-09-21T01:08:45;5.53;;;2.88;;
43363;SDS011;40636;52.424;-1.948;2022-09-21T01:16:55;5.43;;;2.90;;
43363;SDS011;40636;52.424;-1.948;2022-09-21T01:28:11;5.43;;;2.85;;
43363;SDS011;40636;52.424;-1.948;2022-09-21T01:30:47;6.60;;;2.80;;
43363;SDS011;40636;52.424;-1.948;2022-09-21T01:33:20;6.22;;;2.55;;
43363;SDS011;40636;52.424;-1.948;2022-09-21T01:35:56;4.18;;;2.63;;
43363;SDS011;40636;52.424;-1.948;2022-09-21T01:38:29;7.18;;;3.03;;
43363;SDS011;40636;52.424;-1.948;2022-09-21T01:41:01;7.05;;;3.30;;
43363;SDS011;40636;52.424;-1.948;2022-09-21T01:43:31;4.25;;;2.85;;
43363;SDS011;40636;52.424;-1.948;2022-09-21T01:46:01;4.90;;;2.40;;
43363;SDS011;40636;52.424;-1.948;2022-09-21T01:48:32;6.03;;;3.17;;
43363;SDS011;40636;52.424;-1.948;2022-09-21T01:51:03;5.47;;;3.05;;
43363;SDS011;40636;52.424;-1.948;2022-09-21T01:56:18;3.15;;;2.55;;
43363;SDS011;40636;52.424;-1.948;2022-09-21T01:58:51;4.32;;;3.05;;
43363;SDS011;40636;52.424;-1.948;2022-09-21T02:01:24;6.10;;;3.13;;
43363;SDS011;40636;52.424;-1.948;2022-09-21T02:04:04;3.90;;;2.60;;
43363;SDS011;40636;52.424;-1.948;2022-09-21T02:06:35;4.60;;;2.53;;
43363;SDS011;40636;52.424;-1.948;2022-09-21T02:09:06;7.00;;;2.80;;
43363;SDS011;40636;52.424;-1.948;2022-09-21T02:11:34;5.85;;;3.80;;
43363;SDS011;40636;52.424;-1.948;2022-09-21T02:14:08;6.18;;;2.90;;
43363;SDS011;40636;52.424;-1.948;2022-09-21T02:22:26;5.80;;;2.90;;
43363;SDS011;40636;52.424;-1.948;2022-09-21T02:25:09;3.45;;;2.97;;
43363;SDS011;40636;52.424;-1.948;2022-09-21T02:30:45;4.90;;;2.80;;
43363;SDS011;40636;52.424;-1.948;2022-09-21T02:33:23;4.05;;;2.95;;
43363;SDS011;40636;52.424;-1.948;2022-09-21T02:36:01;5.80;;;2.75;;
43363;SDS011;40636;52.424;-1.948;2022-09-21T02:38:34;4.43;;;2.87;;
43363;SDS011;40636;52.424;-1.948;2022-09-21T02:41:10;6.60;;;2.95;;
43363;SDS011;40636;52.424;-1.948;2022-09-21T02:43:44;5.70;;;2.90;;
43363;SDS011;40636;52.424;-1.948;2022-09-21T02:48:53;5.43;;;3.10;;
43363;SDS011;40636;52.424;-1.948;2022-09-21T02:51:27;4.78;;;3.60;;
43363;SDS011;40636;52.424;-1.948;2022-09-21T02:53:57;7.22;;;3.25;;
43363;SDS011;40636;52.424;-1.948;2022-09-21T02:56:27;4.57;;;2.72;;
43363;SDS011;40636;52.424;-1.948;2022-09-21T02:58:57;5.57;;;3.10;;
43363;SDS011;40636;52.424;-1.948;2022-09-21T03:01:26;7.07;;;3.22;;
43363;SDS011;40636;52.424;-1.948;2022-09-21T03:03:54;5.35;;;3.00;;
43363;SDS011;40636;52.424;-1.948;2022-09-21T03:06:21;7.43;;;3.63;;
43363;SDS011;40636;52.424;-1.948;2022-09-21T03:08:48;5.22;;;3.65;;
43363;SDS011;40636;52.424;-1.948;2022-09-21T03:11:18;8.00;;;4.45;;
43363;SDS011;40636;52.424;-1.948;2022-09-21T03:13:46;6.13;;;3.63;;
43363;SDS011;40636;52.424;-1.948;2022-09-21T03:16:13;5.72;;;3.15;;
43363;SDS011;40636;52.424;-1.948;2022-09-21T03:18:40;5.10;;;3.30;;
43363;SDS011;40636;52.424;-1.948;2022-09-21T03:21:10;5.60;;;3.60;;
43363;SDS011;40636;52.424;-1.948;2022-09-21T03:23:38;9.35;;;3.70;;
43363;SDS011;40636;52.424;-1.948;2022-09-21T03:26:05;7.18;;;4.00;;
43363;SDS011;40636;52.424;-1.948;2022-09-21T03:28:32;6.40;;;3.78;;
43363;SDS011;40636;52.424;-1.948;2022-09-21T03:30:59;4.50;;;3.20;;
43363;SDS011;40636;52.424;-1.948;2022-09-21T03:33:26;6.97;;;3.58;;
43363;SDS011;40636;52.424;-1.948;2022-09-21T03:35:53;5.63;;;3.45;;
43363;SDS011;40636;52.424;-1.948;2022-09-21T03:38:20;5.47;;;3.45;;
43363;SDS011;40636;52.424;-1.948;2022-09-21T03:40:47;5.60;;;3.20;;
43363;SDS011;40636;52.424;-1.948;2022-09-21T03:43:15;4.72;;;2.90;;
43363;SDS011;40636;52.424;-1.948;2022-09-21T03:45:42;5.60;;;3.25;;
43363;SDS011;40636;52.424;-1.948;2022-09-21T03:48:11;6.07;;;4.35;;
43363;SDS011;40636;52.424;-1.948;2022-09-21T03:50:39;7.55;;;4.10;;
43363;SDS011;40636;52.424;-1.948;2022-09-21T03:53:06;7.30;;;3.80;;
43363;SDS011;40636;52.424;-1.948;2022-09-21T03:55:34;6.82;;;3.83;;
43363;SDS011;40636;52.424;-1.948;2022-09-21T03:58:02;7.75;;;3.83;;
43363;SDS011;40636;52.424;-1.948;2022-09-21T04:00:29;6.68;;;3.90;;
43363;SDS011;40636;52.424;-1.948;2022-09-21T04:02:56;6.63;;;4.22;;
43363;SDS011;40636;52.424;-1.948;2022-09-21T04:05:23;8.20;;;4.40;;
43363;SDS011;40636;52.424;-1.948;2022-09-21T04:07:49;4.35;;;2.95;;
43363;SDS011;40636;52.424;-1.948;2022-09-21T04:10:17;6.03;;;3.80;;
43363;SDS011;40636;52.424;-1.948;2022-09-21T04:12:45;7.95;;;4.10;;
43363;SDS011;40636;52.424;-1.948;2022-09-21T04:15:14;6.60;;;4.10;;
43363;SDS011;40636;52.424;-1.948;2022-09-21T04:17:45;6.55;;;4.38;;
43363;SDS011;40636;52.424;-1.948;2022-09-21T04:20:19;5.78;;;3.58;;
43363;SDS011;40636;52.424;-1.948;2022-09-21T04:22:46;7.28;;;4.20;;
43363;SDS011;40636;52.424;-1.948;2022-09-21T04:25:13;6.90;;;3.50;;
43363;SDS011;40636;52.424;-1.948;2022-09-21T04:27:40;7.30;;;3.58;;
43363;SDS011;40636;52.424;-1.948;2022-09-21T04:30:09;5.60;;;3.85;;
43363;SDS011;40636;52.424;-1.948;2022-09-21T04:32:37;7.47;;;4.45;;
43363;SDS011;40636;52.424;-1.948;2022-09-21T04:35:04;9.27;;;4.30;;
43363;SDS011;40636;52.424;-1.948;2022-09-21T04:37:31;6.45;;;4.20;;
43363;SDS011;40636;52.424;-1.948;2022-09-21T04:39:58;6.85;;;4.22;;
43363;SDS011;40636;52.424;-1.948;2022-09-21T04:42:24;7.40;;;4.28;;
43363;SDS011;40636;52.424;-1.948;2022-09-21T04:44:52;6.30;;;4.03;;
43363;SDS011;40636;52.424;-1.948;2022-09-21T04:47:19;6.18;;;3.85;;
43363;SDS011;40636;52.424;-1.948;2022-09-21T04:49:49;7.63;;;3.83;;
43363;SDS011;40636;52.424;-1.948;2022-09-21T04:52:16;6.20;;;4.10;;
43363;SDS011;40636;52.424;-1.948;2022-09-21T04:54:44;9.90;;;4.47;;
43363;SDS011;40636;52.424;-1.948;2022-09-21T04:57:12;4.93;;;3.90;;
43363;SDS011;40636;52.424;-1.948;2022-09-21T04:59:40;7.30;;;4.20;;
43363;SDS011;40636;52.424;-1.948;2022-09-21T05:02:07;7.53;;;4.07;;
43363;SDS011;40636;52.424;-1.948;2022-09-21T05:04:34;7.82;;;4.47;;
43363;SDS011;40636;52.424;-1.948;2022-09-21T05:07:02;8.50;;;3.80;;
43363;SDS011;40636;52.424;-1.948;2022-09-21T05:09:29;10.13;;;4.95;;
43363;SDS011;40636;52.424;-1.948;2022-09-21T05:12:14;7.32;;;3.97;;
43363;SDS011;40636;52.424;-1.948;2022-09-21T05:14:40;7.45;;;4.53;;
43363;SDS011;40636;52.424;-1.948;2022-09-21T05:17:10;5.88;;;4.07;;
43363;SDS011;40636;52.424;-1.948;2022-09-21T05:19:37;6.35;;;4.28;;
43363;SDS011;40636;52.424;-1.948;2022-09-21T05:22:04;8.32;;;4.90;;
43363;SDS011;40636;52.424;-1.948;2022-09-21T05:24:31;5.80;;;3.58;;
43363;SDS011;40636;52.424;-1.948;2022-09-21T05:26:58;6.75;;;4.60;;
43363;SDS011;40636;52.424;-1.948;2022-09-21T05:29:25;6.38;;;4.38;;
43363;SDS011;40636;52.424;-1.948;2022-09-21T05:31:57;6.28;;;4.35;;
43363;SDS011;40636;52.424;-1.948;2022-09-21T05:34:49;7.45;;;4.95;;
43363;SDS011;40636;52.424;-1.948;2022-09-21T05:37:35;8.40;;;4.97;;
43363;SDS011;40636;52.424;-1.948;2022-09-21T05:40:03;13.63;;;5.82;;
43363;SDS011;40636;52.424;-1.948;2022-09-21T05:42:31;7.32;;;5.30;;
43363;SDS011;40636;52.424;-1.948;2022-09-21T05:44:58;8.02;;;5.05;;
43363;SDS011;40636;52.424;-1.948;2022-09-21T05:47:38;7.97;;;4.80;;
43363;SDS011;40636;52.424;-1.948;2022-09-21T05:50:32;9.73;;;4.47;;
43363;SDS011;40636;52.424;-1.948;2022-09-21T05:55:56;7.80;;;5.22;;
43363;SDS011;40636;52.424;-1.948;2022-09-21T06:04:08;8.48;;;5.25;;
43363;SDS011;40636;52.424;-1.948;2022-09-21T06:06:38;8.68;;;4.55;;
43363;SDS011;40636;52.424;-1.948;2022-09-21T06:09:04;7.63;;;4.82;;
43363;SDS011;40636;52.424;-1.948;2022-09-21T06:11:31;9.68;;;4.70;;
43363;SDS011;40636;52.424;-1.948;2022-09-21T06:13:59;7.55;;;4.60;;
43363;SDS011;40636;52.424;-1.948;2022-09-21T06:16:35;8.65;;;4.57;;
43363;SDS011;40636;52.424;-1.948;2022-09-21T06:19:06;6.93;;;4.72;;
43363;SDS011;40636;52.424;-1.948;2022-09-21T06:21:36;8.35;;;4.60;;
43363;SDS011;40636;52.424;-1.948;2022-09-21T06:24:03;11.18;;;4.72;;
43363;SDS011;40636;52.424;-1.948;2022-09-21T06:26:30;8.23;;;4.95;;
43363;SDS011;40636;52.424;-1.948;2022-09-21T06:28:57;8.90;;;5.05;;
43363;SDS011;40636;52.424;-1.948;2022-09-21T06:31:24;11.38;;;5.65;;
43363;SDS011;40636;52.424;-1.948;2022-09-21T06:33:52;6.15;;;4.45;;
43363;SDS011;40636;52.424;-1.948;2022-09-21T06:36:19;10.40;;;6.55;;
43363;SDS011;40636;52.424;-1.948;2022-09-21T06:38:45;7.85;;;4.60;;
43363;SDS011;40636;52.424;-1.948;2022-09-21T06:41:12;7.40;;;4.45;;
43363;SDS011;40636;52.424;-1.948;2022-09-21T06:43:46;7.70;;;4.68;;
43363;SDS011;40636;52.424;-1.948;2022-09-21T06:46:13;8.55;;;4.57;;
43363;SDS011;40636;52.424;-1.948;2022-09-21T06:48:40;7.38;;;4.35;;
43363;SDS011;40636;52.424;-1.948;2022-09-21T06:51:08;8.80;;;4.95;;
43363;SDS011;40636;52.424;-1.948;2022-09-21T06:53:35;9.80;;;5.30;;
43363;SDS011;40636;52.424;-1.948;2022-09-21T06:56:05;6.65;;;4.45;;
43363;SDS011;40636;52.424;-1.948;2022-09-21T06:58:34;7.63;;;4.60;;
43363;SDS011;40636;52.424;-1.948;2022-09-21T07:03:33;8.60;;;4.57;;
43363;SDS011;40636;52.424;-1.948;2022-09-21T07:06:00;8.10;;;4.60;;
43363;SDS011;40636;52.424;-1.948;2022-09-21T07:08:27;10.20;;;5.45;;
43363;SDS011;40636;52.424;-1.948;2022-09-21T07:11:13;11.75;;;5.32;;
43363;SDS011;40636;52.424;-1.948;2022-09-21T07:13:40;8.48;;;3.78;;
43363;SDS011;40636;52.424;-1.948;2022-09-21T07:16:08;6.82;;;4.05;;
43363;SDS011;40636;52.424;-1.948;2022-09-21T07:18:36;6.95;;;4.70;;
43363;SDS011;40636;52.424;-1.948;2022-09-21T07:21:09;11.82;;;4.82;;
43363;SDS011;40636;52.424;-1.948;2022-09-21T07:23:37;11.02;;;5.70;;
43363;SDS011;40636;52.424;-1.948;2022-09-21T07:26:05;9.20;;;4.97;;
43363;SDS011;40636;52.424;-1.948;2022-09-21T07:28:34;10.73;;;6.05;;
43363;SDS011;40636;52.424;-1.948;2022-09-21T07:31:11;8.18;;;4.70;;
43363;SDS011;40636;52.424;-1.948;2022-09-21T07:33:39;7.90;;;4.78;;
43363;SDS011;40636;52.424;-1.948;2022-09-21T07:36:07;9.55;;;5.72;;
43363;SDS011;40636;52.424;-1.948;2022-09-21T07:38:39;12.25;;;5.60;;
43363;SDS011;40636;52.424;-1.948;2022-09-21T07:41:10;9.10;;;5.35;;
43363;SDS011;40636;52.424;-1.948;2022-09-21T07:43:38;8.13;;;4.90;;
43363;SDS011;40636;52.424;-1.948;2022-09-21T07:46:06;7.78;;;4.97;;
43363;SDS011;40636;52.424;-1.948;2022-09-21T07:48:34;7.63;;;4.53;;
43363;SDS011;40636;52.424;-1.948;2022-09-21T07:51:02;8.70;;;4.50;;
43363;SDS011;40636;52.424;-1.948;2022-09-21T07:53:34;8.65;;;4.95;;
43363;SDS011;40636;52.424;-1.948;2022-09-21T07:56:06;7.75;;;4.25;;
43363;SDS011;40636;52.424;-1.948;2022-09-21T07:58:35;6.22;;;4.07;;
43363;SDS011;40636;52.424;-1.948;2022-09-21T08:01:21;8.77;;;4.97;;
43363;SDS011;40636;52.424;-1.948;2022-09-21T08:03:49;5.85;;;3.95;;
43363;SDS011;40636;52.424;-1.948;2022-09-21T08:06:16;8.65;;;4.18;;
43363;SDS011;40636;52.424;-1.948;2022-09-21T08:08:44;7.80;;;3.85;;
43363;SDS011;40636;52.424;-1.948;2022-09-21T08:11:17;6.55;;;4.03;;
43363;SDS011;40636;52.424;-1.948;2022-09-21T08:13:47;7.88;;;4.80;;
43363;SDS011;40636;52.424;-1.948;2022-09-21T08:16:14;7.95;;;3.90;;
43363;SDS011;40636;52.424;-1.948;2022-09-21T08:18:41;7.07;;;3.95;;
43363;SDS011;40636;52.424;-1.948;2022-09-21T08:21:09;7.43;;;4.13;;
43363;SDS011;40636;52.424;-1.948;2022-09-21T08:23:37;6.22;;;3.60;;
43363;SDS011;40636;52.424;-1.948;2022-09-21T08:26:09;8.38;;;3.80;;
43363;SDS011;40636;52.424;-1.948;2022-09-21T08:28:42;6.50;;;3.67;;
43363;SDS011;40636;52.424;-1.948;2022-09-21T08:31:10;6.70;;;3.60;;
43363;SDS011;40636;52.424;-1.948;2022-09-21T08:33:37;6.18;;;3.53;;
43363;SDS011;40636;52.424;-1.948;2022-09-21T08:36:03;4.47;;;3.10;;
43363;SDS011;40636;52.424;-1.948;2022-09-21T08:38:31;6.38;;;4.15;;
43363;SDS011;40636;52.424;-1.948;2022-09-21T08:41:00;5.50;;;3.22;;
43363;SDS011;40636;52.424;-1.948;2022-09-21T08:43:33;6.03;;;3.22;;
43363;SDS011;40636;52.424;-1.948;2022-09-21T08:46:05;7.32;;;3.30;;
43363;SDS011;40636;52.424;-1.948;2022-09-21T08:48:39;4.85;;;3.33;;
43363;SDS011;40636;52.424;-1.948;2022-09-21T08:51:13;6.82;;;3.53;;
43363;SDS011;40636;52.424;-1.948;2022-09-21T08:53:48;7.07;;;4.07;;
43363;SDS011;40636;52.424;-1.948;2022-09-21T08:56:16;5.80;;;3.40;;
43363;SDS011;40636;52.424;-1.948;2022-09-21T08:58:43;5.22;;;2.72;;
43363;SDS011;40636;52.424;-1.948;2022-09-21T09:13:03;5.18;;;2.55;;
43363;SDS011;40636;52.424;-1.948;2022-09-21T09:18:44;4.90;;;2.40;;
43363;SDS011;40636;52.424;-1.948;2022-09-21T09:21:23;5.15;;;2.83;;
43363;SDS011;40636;52.424;-1.948;2022-09-21T09:24:00;4.97;;;2.60;;
43363;SDS011;40636;52.424;-1.948;2022-09-21T09:26:31;3.15;;;2.28;;
43363;SDS011;40636;52.424;-1.948;2022-09-21T09:29:11;4.60;;;2.33;;
43363;SDS011;40636;52.424;-1.948;2022-09-21T09:31:39;5.18;;;2.47;;
43363;SDS011;40636;52.424;-1.948;2022-09-21T09:34:17;4.28;;;2.67;;
43363;SDS011;40636;52.424;-1.948;2022-09-21T09:36:51;4.03;;;2.97;;
43363;SDS011;40636;52.424;-1.948;2022-09-21T09:39:25;5.47;;;3.00;;
43363;SDS011;40636;52.424;-1.948;2022-09-21T09:50:43;4.68;;;3.00;;
43363;SDS011;40636;52.424;-1.948;2022-09-21T09:53:15;5.15;;;3.10;;
43363;SDS011;40636;52.424;-1.948;2022-09-21T09:55:45;6.03;;;2.90;;
43363;SDS011;40636;52.424;-1.948;2022-09-21T09:58:15;7.03;;;3.58;;
43363;SDS011;40636;52.424;-1.948;2022-09-21T10:00:45;5.25;;;4.13;;
43363;SDS011;40636;52.424;-1.948;2022-09-21T10:03:32;4.35;;;2.70;;
43363;SDS011;40636;52.424;-1.948;2022-09-21T10:05:59;5.40;;;3.45;;
43363;SDS011;40636;52.424;-1.948;2022-09-21T10:11:02;5.22;;;3.42;;
43363;SDS011;40636;52.424;-1.948;2022-09-21T10:13:30;5.28;;;2.38;;
43363;SDS011;40636;52.424;-1.948;2022-09-21T10:16:11;5.95;;;2.80;;
43363;SDS011;40636;52.424;-1.948;2022-09-21T10:18:43;6.85;;;3.33;;
43363;SDS011;40636;52.424;-1.948;2022-09-21T10:23:51;7.72;;;2.80;;
43363;SDS011;40636;52.424;-1.948;2022-09-21T10:26:23;5.03;;;2.83;;
43363;SDS011;40636;52.424;-1.948;2022-09-21T10:28:59;3.45;;;2.70;;
43363;SDS011;40636;52.424;-1.948;2022-09-21T10:31:28;4.90;;;3.28;;
43363;SDS011;40636;52.424;-1.948;2022-09-21T10:34:14;4.68;;;2.88;;
43363;SDS011;40636;52.424;-1.948;2022-09-21T10:36:47;5.25;;;2.53;;
43363;SDS011;40636;52.424;-1.948;2022-09-21T10:39:32;3.47;;;2.75;;
43363;SDS011;40636;52.424;-1.948;2022-09-21T10:42:03;4.70;;;2.55;;
43363;SDS011;40636;52.424;-1.948;2022-09-21T10:44:44;4.50;;;2.47;;
43363;SDS011;40636;52.424;-1.948;2022-09-21T10:49:56;3.90;;;2.50;;
43363;SDS011;40636;52.424;-1.948;2022-09-21T10:52:33;4.53;;;2.70;;
43363;SDS011;40636;52.424;-1.948;2022-09-21T10:55:05;5.50;;;2.47;;
43363;SDS011;40636;52.424;-1.948;2022-09-21T10:57:46;4.38;;;2.33;;
43363;SDS011;40636;52.424;-1.948;2022-09-21T11:02:50;4.10;;;2.70;;
43363;SDS011;40636;52.424;-1.948;2022-09-21T11:18:29;5.03;;;2.90;;
43363;SDS011;40636;52.424;-1.948;2022-09-21T11:21:16;6.05;;;3.00;;
43363;SDS011;40636;52.424;-1.948;2022-09-21T11:29:52;5.63;;;2.47;;
43363;SDS011;40636;52.424;-1.948;2022-09-21T11:49:07;5.68;;;3.63;;
43363;SDS011;40636;52.424;-1.948;2022-09-21T11:55:14;10.70;;;3.67;;
43363;SDS011;40636;52.424;-1.948;2022-09-21T11:57:52;5.88;;;3.13;;
43363;SDS011;40636;52.424;-1.948;2022-09-21T12:00:25;7.90;;;3.65;;
43363;SDS011;40636;52.424;-1.948;2022-09-21T12:03:19;4.75;;;3.33;;
43363;SDS011;40636;52.424;-1.948;2022-09-21T12:11:23;6.93;;;3.20;;
43363;SDS011;40636;52.424;-1.948;2022-09-21T12:21:58;4.40;;;2.65;;
43363;SDS011;40636;52.424;-1.948;2022-09-21T12:24:33;3.65;;;2.25;;
43363;SDS011;40636;52.424;-1.948;2022-09-21T12:27:27;5.90;;;3.25;;
43363;SDS011;40636;52.424;-1.948;2022-09-21T12:30:01;5.10;;;3.30;;
43363;SDS011;40636;52.424;-1.948;2022-09-21T12:32:38;3.38;;;2.53;;
43363;SDS011;40636;52.424;-1.948;2022-09-21T12:35:38;5.70;;;3.00;;
43363;SDS011;40636;52.424;-1.948;2022-09-21T12:44:03;4.88;;;2.65;;
43363;SDS011;40636;52.424;-1.948;2022-09-21T12:46:48;3.45;;;2.78;;
43363;SDS011;40636;52.424;-1.948;2022-09-21T12:49:27;4.07;;;3.05;;
43363;SDS011;40636;52.424;-1.948;2022-09-21T12:51:58;3.30;;;2.10;;
43363;SDS011;40636;52.424;-1.948;2022-09-21T12:54:35;4.43;;;2.35;;
43363;SDS011;40636;52.424;-1.948;2022-09-21T12:57:15;4.20;;;2.58;;
43363;SDS011;40636;52.424;-1.948;2022-09-21T13:00:30;5.40;;;2.10;;
43363;SDS011;40636;52.424;-1.948;2022-09-21T13:03:10;4.60;;;2.13;;
43363;SDS011;40636;52.424;-1.948;2022-09-21T13:06:11;4.57;;;2.50;;
43363;SDS011;40636;52.424;-1.948;2022-09-21T13:08:55;4.60;;;2.88;;
43363;SDS011;40636;52.424;-1.948;2022-09-21T13:11:22;6.55;;;2.50;;
43363;SDS011;40636;52.424;-1.948;2022-09-21T13:13:51;3.95;;;2.20;;
43363;SDS011;40636;52.424;-1.948;2022-09-21T13:19:03;3.75;;;2.42;;
43363;SDS011;40636;52.424;-1.948;2022-09-21T13:21:42;4.28;;;2.72;;
43363;SDS011;40636;52.424;-1.948;2022-09-21T13:24:25;4.50;;;2.60;;
43363;SDS011;40636;52.424;-1.948;2022-09-21T13:27:01;3.35;;;2.50;;
43363;SDS011;40636;52.424;-1.948;2022-09-21T13:29:34;4.07;;;2.17;;
43363;SDS011;40636;52.424;-1.948;2022-09-21T13:34:36;3.72;;;2.20;;
43363;SDS011;40636;52.424;-1.948;2022-09-21T13:39:42;4.07;;;2.20;;
43363;SDS011;40636;52.424;-1.948;2022-09-21T13:44:55;9.02;;;2.42;;
43363;SDS011;40636;52.424;-1.948;2022-09-21T13:47:30;3.63;;;2.85;;
43363;SDS011;40636;52.424;-1.948;2022-09-21T13:50:02;4.13;;;2.85;;
43363;SDS011;40636;52.424;-1.948;2022-09-21T13:52:42;3.60;;;2.22;;
43363;SDS011;40636;52.424;-1.948;2022-09-21T13:55:30;4.25;;;2.20;;
43363;SDS011;40636;52.424;-1.948;2022-09-21T13:58:26;2.97;;;1.80;;
43363;SDS011;40636;52.424;-1.948;2022-09-21T14:00:58;2.10;;;1.88;;
43363;SDS011;40636;52.424;-1.948;2022-09-21T14:03:37;3.78;;;2.22;;
43363;SDS011;40636;52.424;-1.948;2022-09-21T14:06:11;3.38;;;2.55;;
43363;SDS011;40636;52.424;-1.948;2022-09-21T14:08:52;3.55;;;1.95;;
43363;SDS011;40636;52.424;-1.948;2022-09-21T14:11:30;11.43;;;2.33;;
43363;SDS011;40636;52.424;-1.948;2022-09-21T14:16:49;4.38;;;2.10;;
43363;SDS011;40636;52.424;-1.948;2022-09-21T14:24:44;2.55;;;1.90;;
43363;SDS011;40636;52.424;-1.948;2022-09-21T14:29:59;2.30;;;1.42;;
43363;SDS011;40636;52.424;-1.948;2022-09-21T14:32:34;2.20;;;1.63;;
43363;SDS011;40636;52.424;-1.948;2022-09-21T14:35:12;3.63;;;1.75;;
43363;SDS011;40636;52.424;-1.948;2022-09-21T14:37:45;3.35;;;1.67;;
43363;SDS011;40636;52.424;-1.948;2022-09-21T14:40:26;2.80;;;1.55;;
43363;SDS011;40636;52.424;-1.948;2022-09-21T14:43:08;4.00;;;1.40;;
43363;SDS011;40636;52.424;-1.948;2022-09-21T14:51:29;3.17;;;1.50;;
43363;SDS011;40636;52.424;-1.948;2022-09-21T15:00:12;3.25;;;1.70;;
43363;SDS011;40636;52.424;-1.948;2022-09-21T15:02:41;2.17;;;1.27;;
43363;SDS011;40636;52.424;-1.948;2022-09-21T15:05:17;2.70;;;1.50;;
43363;SDS011;40636;52.424;-1.948;2022-09-21T15:08:04;2.25;;;1.58;;
43363;SDS011;40636;52.424;-1.948;2022-09-21T15:14:21;2.92;;;1.58;;
43363;SDS011;40636;52.424;-1.948;2022-09-21T15:16:55;2.40;;;1.60;;
43363;SDS011;40636;52.424;-1.948;2022-09-21T15:19:23;2.25;;;1.38;;
43363;SDS011;40636;52.424;-1.948;2022-09-21T15:21:54;4.43;;;1.48;;
43363;SDS011;40636;52.424;-1.948;2022-09-21T15:24:34;2.30;;;1.50;;
43363;SDS011;40636;52.424;-1.948;2022-09-21T15:29:33;2.08;;;1.13;;
43363;SDS011;40636;52.424;-1.948;2022-09-21T15:31:59;2.97;;;1.95;;
43363;SDS011;40636;52.424;-1.948;2022-09-21T15:34:26;2.65;;;1.73;;
43363;SDS011;40636;52.424;-1.948;2022-09-21T15:37:04;2.88;;;2.10;;
43363;SDS011;40636;52.424;-1.948;2022-09-21T15:39:32;2.00;;;1.33;;
43363;SDS011;40636;52.424;-1.948;2022-09-21T15:44:36;3.87;;;1.23;;
43363;SDS011;40636;52.424;-1.948;2022-09-21T15:47:07;1.98;;;1.48;;
43363;SDS011;40636;52.424;-1.948;2022-09-21T15:49:38;1.70;;;1.30;;
43363;SDS011;40636;52.424;-1.948;2022-09-21T15:55:10;3.95;;;1.45;;
43363;SDS011;40636;52.424;-1.948;2022-09-21T15:57:50;1.92;;;1.60;;
43363;SDS011;40636;52.424;-1.948;2022-09-21T16:00:23;3.33;;;1.58;;
43363;SDS011;40636;52.424;-1.948;2022-09-21T16:03:05;1.83;;;1.27;;
43363;SDS011;40636;52.424;-1.948;2022-09-21T16:08:33;2.60;;;1.83;;
43363;SDS011;40636;52.424;-1.948;2022-09-21T16:13:37;3.47;;;2.35;;
43363;SDS011;40636;52.424;-1.948;2022-09-21T16:16:22;4.72;;;2.03;;
43363;SDS011;40636;52.424;-1.948;2022-09-21T16:18:50;4.22;;;1.65;;
43363;SDS011;40636;52.424;-1.948;2022-09-21T16:21:20;3.08;;;2.00;;
43363;SDS011;40636;52.424;-1.948;2022-09-21T16:23:54;3.95;;;2.50;;
43363;SDS011;40636;52.424;-1.948;2022-09-21T16:26:25;6.38;;;1.88;;
43363;SDS011;40636;52.424;-1.948;2022-09-21T16:31:33;4.95;;;1.77;;
43363;SDS011;40636;52.424;-1.948;2022-09-21T16:34:03;4.05;;;1.88;;
43363;SDS011;40636;52.424;-1.948;2022-09-21T16:36:48;2.58;;;1.48;;
43363;SDS011;40636;52.424;-1.948;2022-09-21T16:39:17;2.55;;;1.70;;
43363;SDS011;40636;52.424;-1.948;2022-09-21T16:41:54;3.55;;;2.10;;
43363;SDS011;40636;52.424;-1.948;2022-09-21T16:44:26;4.85;;;2.00;;
43363;SDS011;40636;52.424;-1.948;2022-09-21T16:46:57;3.55;;;1.73;;
43363;SDS011;40636;52.424;-1.948;2022-09-21T16:49:27;5.15;;;1.92;;
43363;SDS011;40636;52.424;-1.948;2022-09-21T16:51:58;4.85;;;2.45;;
43363;SDS011;40636;52.424;-1.948;2022-09-21T16:54:25;4.85;;;1.80;;
43363;SDS011;40636;52.424;-1.948;2022-09-21T16:56:54;3.25;;;1.90;;
43363;SDS011;40636;52.424;-1.948;2022-09-21T16:59:23;4.20;;;2.10;;
43363;SDS011;40636;52.424;-1.948;2022-09-21T17:01:55;2.45;;;1.70;;
43363;SDS011;40636;52.424;-1.948;2022-09-21T17:04:24;4.35;;;1.67;;
43363;SDS011;40636;52.424;-1.948;2022-09-21T17:06:54;3.17;;;2.03;;
43363;SDS011;40636;52.424;-1.948;2022-09-21T17:09:22;2.22;;;1.48;;
43363;SDS011;40636;52.424;-1.948;2022-09-21T17:11:54;3.35;;;1.70;;
43363;SDS011;40636;52.424;-1.948;2022-09-21T17:14:23;4.97;;;2.10;;
43363;SDS011;40636;52.424;-1.948;2022-09-21T17:16:51;3.70;;;1.70;;
43363;SDS011;40636;52.424;-1.948;2022-09-21T17:19:19;4.05;;;1.67;;
43363;SDS011;40636;52.424;-1.948;2022-09-21T17:21:47;4.38;;;2.10;;
43363;SDS011;40636;52.424;-1.948;2022-09-21T17:24:14;2.10;;;1.80;;
43363;SDS011;40636;52.424;-1.948;2022-09-21T17:27:02;4.38;;;1.80;;
43363;SDS011;40636;52.424;-1.948;2022-09-21T17:29:29;3.83;;;1.70;;
43363;SDS011;40636;52.424;-1.948;2022-09-21T17:31:57;2.88;;;2.03;;
43363;SDS011;40636;52.424;-1.948;2022-09-21T17:34:25;3.28;;;2.10;;
43363;SDS011;40636;52.424;-1.948;2022-09-21T17:36:53;2.50;;;1.80;;
43363;SDS011;40636;52.424;-1.948;2022-09-21T17:39:21;3.03;;;1.90;;
43363;SDS011;40636;52.424;-1.948;2022-09-21T17:41:50;3.60;;;1.90;;
43363;SDS011;40636;52.424;-1.948;2022-09-21T17:47:01;1.83;;;1.63;;
43363;SDS011;40636;52.424;-1.948;2022-09-21T17:49:37;4.13;;;2.10;;
43363;SDS011;40636;52.424;-1.948;2022-09-21T17:52:08;5.15;;;1.80;;
43363;SDS011;40636;52.424;-1.948;2022-09-21T17:54:58;3.20;;;1.73;;
43363;SDS011;40636;52.424;-1.948;2022-09-21T18:03:23;2.22;;;1.52;;
43363;SDS011;40636;52.424;-1.948;2022-09-21T18:05:54;3.42;;;2.45;;
43363;SDS011;40636;52.424;-1.948;2022-09-21T18:08:25;4.55;;;1.98;;
43363;SDS011;40636;52.424;-1.948;2022-09-21T18:11:01;5.38;;;2.45;;
43363;SDS011;40636;52.424;-1.948;2022-09-21T18:13:39;4.53;;;2.10;;
43363;SDS011;40636;52.424;-1.948;2022-09-21T18:19:04;3.30;;;2.13;;